sensor_id;sensor_type;location;lat;lon;timestamp;P1;durP1;ratioP1;P2;durP2;ratioP2
15254;SDS011;7730;49.610;11.136;2023-03-23T00:00:43;9.18;;;4.07;;
15254;SDS011;7730;49.610;11.136;2023-03-23T00:03:10;9.65;;;3.90;;
15254;SDS011;7730;49.610;11.136;2023-03-23T00:05:38;10.23;;;3.30;;
15254;SDS011;7730;49.610;11.136;2023-03-23T00:08:06;8.43;;;3.33;;
15254;SDS011;7730;49.610;11.136;2023-03-23T00:10:34;6.40;;;3.03;;
15254;SDS011;7730;49.610;11.136;2023-03-23T00:13:01;7.60;;;3.13;;
15254;SDS011;7730;49.610;11.136;2023-03-23T00:15:29;7.88;;;3.10;;
15254;SDS011;7730;49.610;11.136;2023-03-23T00:17:59;7.15;;;2.92;;
15254;SDS011;7730;49.610;11.136;2023-03-23T00:20:29;7.10;;;2.80;;
15254;SDS011;7730;49.610;11.136;2023-03-23T00:23:06;7.07;;;2.80;;
15254;SDS011;7730;49.610;11.136;2023-03-23T00:25:33;7.30;;;2.90;;
15254;SDS011;7730;49.610;11.136;2023-03-23T00:28:00;5.68;;;2.60;;
15254;SDS011;7730;49.610;11.136;2023-03-23T00:30:27;6.38;;;2.60;;
15254;SDS011;7730;49.610;11.136;2023-03-23T00:32:55;8.82;;;3.20;;
15254;SDS011;7730;49.610;11.136;2023-03-23T00:35:24;6.35;;;2.70;;
15254;SDS011;7730;49.610;11.136;2023-03-23T00:37:52;7.63;;;2.78;;
15254;SDS011;7730;49.610;11.136;2023-03-23T00:40:20;8.35;;;2.97;;
15254;SDS011;7730;49.610;11.136;2023-03-23T00:42:47;7.63;;;2.60;;
15254;SDS011;7730;49.610;11.136;2023-03-23T00:45:15;6.80;;;2.65;;
15254;SDS011;7730;49.610;11.136;2023-03-23T00:47:42;7.85;;;3.00;;
15254;SDS011;7730;49.610;11.136;2023-03-23T00:50:11;6.22;;;2.75;;
15254;SDS011;7730;49.610;11.136;2023-03-23T00:52:40;7.07;;;2.75;;
15254;SDS011;7730;49.610;11.136;2023-03-23T00:55:07;6.22;;;2.65;;
15254;SDS011;7730;49.610;11.136;2023-03-23T00:57:34;8.43;;;3.22;;
15254;SDS011;7730;49.610;11.136;2023-03-23T01:00:01;7.68;;;3.03;;
15254;SDS011;7730;49.610;11.136;2023-03-23T01:02:30;5.50;;;2.60;;
15254;SDS011;7730;49.610;11.136;2023-03-23T01:04:57;5.50;;;2.70;;
15254;SDS011;7730;49.610;11.136;2023-03-23T01:07:24;6.85;;;2.75;;
15254;SDS011;7730;49.610;11.136;2023-03-23T01:09:54;6.88;;;2.70;;
15254;SDS011;7730;49.610;11.136;2023-03-23T01:12:22;6.38;;;2.60;;
15254;SDS011;7730;49.610;11.136;2023-03-23T01:14:50;6.88;;;2.80;;
15254;SDS011;7730;49.610;11.136;2023-03-23T01:17:17;9.10;;;3.20;;
15254;SDS011;7730;49.610;11.136;2023-03-23T01:19:44;8.57;;;3.53;;
15254;SDS011;7730;49.610;11.136;2023-03-23T01:22:11;9.95;;;3.72;;
15254;SDS011;7730;49.610;11.136;2023-03-23T01:24:38;6.70;;;3.20;;
15254;SDS011;7730;49.610;11.136;2023-03-23T01:27:07;7.47;;;3.13;;
15254;SDS011;7730;49.610;11.136;2023-03-23T01:29:34;7.60;;;3.10;;
15254;SDS011;7730;49.610;11.136;2023-03-23T01:32:01;8.27;;;3.10;;
15254;SDS011;7730;49.610;11.136;2023-03-23T01:34:28;7.93;;;3.10;;
15254;SDS011;7730;49.610;11.136;2023-03-23T01:36:56;6.70;;;3.13;;
15254;SDS011;7730;49.610;11.136;2023-03-23T01:39:23;6.75;;;2.90;;
15254;SDS011;7730;49.610;11.136;2023-03-23T01:41:50;7.72;;;2.90;;
15254;SDS011;7730;49.610;11.136;2023-03-23T01:47:04;6.95;;;3.05;;
15254;SDS011;7730;49.610;11.136;2023-03-23T01:49:32;5.85;;;2.65;;
15254;SDS011;7730;49.610;11.136;2023-03-23T01:52:00;7.32;;;3.00;;
15254;SDS011;7730;49.610;11.136;2023-03-23T01:54:28;7.82;;;3.05;;
15254;SDS011;7730;49.610;11.136;2023-03-23T01:56:57;7.40;;;2.70;;
15254;SDS011;7730;49.610;11.136;2023-03-23T01:59:25;8.75;;;3.00;;
15254;SDS011;7730;49.610;11.136;2023-03-23T02:01:53;7.57;;;2.78;;
15254;SDS011;7730;49.610;11.136;2023-03-23T02:04:22;6.13;;;2.70;;
15254;SDS011;7730;49.610;11.136;2023-03-23T02:06:49;6.20;;;2.70;;
15254;SDS011;7730;49.610;11.136;2023-03-23T02:09:17;5.80;;;2.60;;
15254;SDS011;7730;49.610;11.136;2023-03-23T02:11:44;6.80;;;2.60;;
15254;SDS011;7730;49.610;11.136;2023-03-23T02:14:11;7.13;;;2.67;;
15254;SDS011;7730;49.610;11.136;2023-03-23T02:16:40;7.22;;;2.95;;
15254;SDS011;7730;49.610;11.136;2023-03-23T02:19:20;5.90;;;2.70;;
15254;SDS011;7730;49.610;11.136;2023-03-23T02:27:40;6.70;;;2.70;;
15254;SDS011;7730;49.610;11.136;2023-03-23T02:30:18;5.65;;;2.63;;
15254;SDS011;7730;49.610;11.136;2023-03-23T02:35:30;6.70;;;2.75;;
15254;SDS011;7730;49.610;11.136;2023-03-23T02:38:00;6.55;;;2.72;;
15254;SDS011;7730;49.610;11.136;2023-03-23T02:40:30;5.45;;;2.58;;
15254;SDS011;7730;49.610;11.136;2023-03-23T02:42:57;6.07;;;2.80;;
15254;SDS011;7730;49.610;11.136;2023-03-23T02:45:25;5.15;;;2.60;;
15254;SDS011;7730;49.610;11.136;2023-03-23T02:47:54;9.88;;;2.85;;
15254;SDS011;7730;49.610;11.136;2023-03-23T02:50:22;4.38;;;2.50;;
15254;SDS011;7730;49.610;11.136;2023-03-23T02:52:52;6.13;;;2.50;;
15254;SDS011;7730;49.610;11.136;2023-03-23T02:55:20;5.13;;;2.55;;
15254;SDS011;7730;49.610;11.136;2023-03-23T02:57:49;5.70;;;2.42;;
15254;SDS011;7730;49.610;11.136;2023-03-23T03:00:17;5.13;;;2.40;;
15254;SDS011;7730;49.610;11.136;2023-03-23T03:02:45;4.85;;;2.30;;
15254;SDS011;7730;49.610;11.136;2023-03-23T03:05:18;6.53;;;2.40;;
15254;SDS011;7730;49.610;11.136;2023-03-23T03:07:53;5.05;;;2.20;;
15254;SDS011;7730;49.610;11.136;2023-03-23T03:10:25;5.68;;;2.30;;
15254;SDS011;7730;49.610;11.136;2023-03-23T03:12:55;7.07;;;2.50;;
15254;SDS011;7730;49.610;11.136;2023-03-23T03:15:25;5.65;;;2.60;;
15254;SDS011;7730;49.610;11.136;2023-03-23T03:17:55;3.47;;;2.20;;
15254;SDS011;7730;49.610;11.136;2023-03-23T03:20:25;6.13;;;2.33;;
15254;SDS011;7730;49.610;11.136;2023-03-23T03:22:54;5.32;;;2.40;;
15254;SDS011;7730;49.610;11.136;2023-03-23T03:25:22;5.93;;;2.25;;
15254;SDS011;7730;49.610;11.136;2023-03-23T03:27:50;6.30;;;2.17;;
15254;SDS011;7730;49.610;11.136;2023-03-23T03:30:20;4.32;;;2.30;;
15254;SDS011;7730;49.610;11.136;2023-03-23T03:32:49;5.28;;;2.30;;
15254;SDS011;7730;49.610;11.136;2023-03-23T03:35:18;4.80;;;2.15;;
15254;SDS011;7730;49.610;11.136;2023-03-23T03:37:46;4.72;;;2.15;;
15254;SDS011;7730;49.610;11.136;2023-03-23T03:40:16;3.80;;;2.15;;
15254;SDS011;7730;49.610;11.136;2023-03-23T03:42:44;4.45;;;2.20;;
15254;SDS011;7730;49.610;11.136;2023-03-23T03:45:12;5.03;;;2.20;;
15254;SDS011;7730;49.610;11.136;2023-03-23T03:47:39;4.20;;;2.30;;
15254;SDS011;7730;49.610;11.136;2023-03-23T03:50:06;4.55;;;2.10;;
15254;SDS011;7730;49.610;11.136;2023-03-23T03:52:34;4.32;;;2.10;;
15254;SDS011;7730;49.610;11.136;2023-03-23T03:55:01;4.88;;;2.20;;
15254;SDS011;7730;49.610;11.136;2023-03-23T03:57:29;5.60;;;2.28;;
15254;SDS011;7730;49.610;11.136;2023-03-23T03:59:57;4.47;;;2.25;;
15254;SDS011;7730;49.610;11.136;2023-03-23T04:02:24;3.78;;;2.15;;
15254;SDS011;7730;49.610;11.136;2023-03-23T04:04:51;4.32;;;2.10;;
15254;SDS011;7730;49.610;11.136;2023-03-23T04:07:18;5.82;;;2.30;;
15254;SDS011;7730;49.610;11.136;2023-03-23T04:09:46;4.43;;;2.20;;
15254;SDS011;7730;49.610;11.136;2023-03-23T04:12:14;5.70;;;2.20;;
15254;SDS011;7730;49.610;11.136;2023-03-23T04:14:42;5.35;;;2.10;;
15254;SDS011;7730;49.610;11.136;2023-03-23T04:17:10;4.78;;;2.15;;
15254;SDS011;7730;49.610;11.136;2023-03-23T04:19:37;5.63;;;2.15;;
15254;SDS011;7730;49.610;11.136;2023-03-23T04:22:04;5.75;;;2.10;;
15254;SDS011;7730;49.610;11.136;2023-03-23T04:24:32;4.20;;;2.10;;
15254;SDS011;7730;49.610;11.136;2023-03-23T04:27:00;4.75;;;2.10;;
15254;SDS011;7730;49.610;11.136;2023-03-23T04:29:28;4.13;;;2.10;;
15254;SDS011;7730;49.610;11.136;2023-03-23T04:31:56;3.45;;;1.88;;
15254;SDS011;7730;49.610;11.136;2023-03-23T04:34:25;6.13;;;2.10;;
15254;SDS011;7730;49.610;11.136;2023-03-23T04:36:52;3.10;;;1.80;;
15254;SDS011;7730;49.610;11.136;2023-03-23T04:39:21;3.42;;;2.00;;
15254;SDS011;7730;49.610;11.136;2023-03-23T04:41:49;6.47;;;2.00;;
15254;SDS011;7730;49.610;11.136;2023-03-23T04:44:16;4.15;;;2.08;;
15254;SDS011;7730;49.610;11.136;2023-03-23T04:46:46;3.28;;;2.00;;
15254;SDS011;7730;49.610;11.136;2023-03-23T04:49:16;4.05;;;2.17;;
15254;SDS011;7730;49.610;11.136;2023-03-23T04:51:46;4.38;;;2.05;;
15254;SDS011;7730;49.610;11.136;2023-03-23T04:54:13;6.57;;;2.10;;
15254;SDS011;7730;49.610;11.136;2023-03-23T04:56:40;4.37;;;2.07;;
15254;SDS011;7730;49.610;11.136;2023-03-23T04:59:07;4.32;;;1.95;;
15254;SDS011;7730;49.610;11.136;2023-03-23T05:01:34;4.38;;;1.98;;
15254;SDS011;7730;49.610;11.136;2023-03-23T05:04:03;3.33;;;1.90;;
15254;SDS011;7730;49.610;11.136;2023-03-23T05:06:31;4.00;;;1.90;;
15254;SDS011;7730;49.610;11.136;2023-03-23T05:08:58;3.97;;;2.00;;
15254;SDS011;7730;49.610;11.136;2023-03-23T05:11:26;3.60;;;2.00;;
15254;SDS011;7730;49.610;11.136;2023-03-23T05:13:53;5.53;;;2.05;;
15254;SDS011;7730;49.610;11.136;2023-03-23T05:16:20;3.47;;;1.90;;
15254;SDS011;7730;49.610;11.136;2023-03-23T05:18:47;4.32;;;1.90;;
15254;SDS011;7730;49.610;11.136;2023-03-23T05:21:14;4.07;;;1.90;;
15254;SDS011;7730;49.610;11.136;2023-03-23T05:23:42;3.80;;;1.90;;
15254;SDS011;7730;49.610;11.136;2023-03-23T05:26:10;3.72;;;1.98;;
15254;SDS011;7730;49.610;11.136;2023-03-23T05:28:37;2.72;;;1.80;;
15254;SDS011;7730;49.610;11.136;2023-03-23T05:31:06;6.05;;;2.40;;
15254;SDS011;7730;49.610;11.136;2023-03-23T05:33:33;6.05;;;2.25;;
15254;SDS011;7730;49.610;11.136;2023-03-23T05:36:01;5.47;;;2.00;;
15254;SDS011;7730;49.610;11.136;2023-03-23T05:38:30;5.47;;;2.20;;
15254;SDS011;7730;49.610;11.136;2023-03-23T05:40:59;4.38;;;2.00;;
15254;SDS011;7730;49.610;11.136;2023-03-23T05:43:27;13.25;;;2.45;;
15254;SDS011;7730;49.610;11.136;2023-03-23T05:45:53;12.05;;;2.22;;
15254;SDS011;7730;49.610;11.136;2023-03-23T05:48:21;6.78;;;2.17;;
15254;SDS011;7730;49.610;11.136;2023-03-23T05:50:48;5.38;;;2.00;;
15254;SDS011;7730;49.610;11.136;2023-03-23T05:53:15;4.63;;;2.00;;
15254;SDS011;7730;49.610;11.136;2023-03-23T05:55:42;4.57;;;2.10;;
15254;SDS011;7730;49.610;11.136;2023-03-23T05:58:11;8.93;;;2.20;;
15254;SDS011;7730;49.610;11.136;2023-03-23T06:00:38;4.40;;;1.98;;
15254;SDS011;7730;49.610;11.136;2023-03-23T06:03:05;7.30;;;2.08;;
15254;SDS011;7730;49.610;11.136;2023-03-23T06:05:32;4.75;;;2.03;;
15254;SDS011;7730;49.610;11.136;2023-03-23T06:07:59;4.63;;;2.20;;
15254;SDS011;7730;49.610;11.136;2023-03-23T06:10:26;4.43;;;2.20;;
15254;SDS011;7730;49.610;11.136;2023-03-23T06:12:55;4.53;;;2.13;;
15254;SDS011;7730;49.610;11.136;2023-03-23T06:15:23;7.65;;;2.15;;
15254;SDS011;7730;49.610;11.136;2023-03-23T06:17:54;17.67;;;3.70;;
15254;SDS011;7730;49.610;11.136;2023-03-23T06:20:21;9.48;;;2.38;;
15254;SDS011;7730;49.610;11.136;2023-03-23T06:22:49;6.32;;;2.40;;
15254;SDS011;7730;49.610;11.136;2023-03-23T06:25:17;7.35;;;2.00;;
15254;SDS011;7730;49.610;11.136;2023-03-23T06:27:44;7.22;;;2.05;;
15254;SDS011;7730;49.610;11.136;2023-03-23T06:30:12;2.95;;;2.00;;
15254;SDS011;7730;49.610;11.136;2023-03-23T06:32:41;3.80;;;2.00;;
15254;SDS011;7730;49.610;11.136;2023-03-23T06:35:11;5.45;;;2.22;;
15254;SDS011;7730;49.610;11.136;2023-03-23T06:37:38;5.45;;;1.90;;
15254;SDS011;7730;49.610;11.136;2023-03-23T06:40:06;5.65;;;2.33;;
15254;SDS011;7730;49.610;11.136;2023-03-23T06:42:33;4.32;;;2.10;;
15254;SDS011;7730;49.610;11.136;2023-03-23T06:45:00;4.55;;;1.90;;
15254;SDS011;7730;49.610;11.136;2023-03-23T06:47:28;6.95;;;2.60;;
15254;SDS011;7730;49.610;11.136;2023-03-23T06:49:56;8.00;;;2.40;;
15254;SDS011;7730;49.610;11.136;2023-03-23T06:52:24;4.95;;;2.10;;
15254;SDS011;7730;49.610;11.136;2023-03-23T06:54:51;5.78;;;2.10;;
15254;SDS011;7730;49.610;11.136;2023-03-23T06:57:18;5.25;;;2.05;;
15254;SDS011;7730;49.610;11.136;2023-03-23T06:59:45;8.82;;;2.20;;
15254;SDS011;7730;49.610;11.136;2023-03-23T07:02:13;5.38;;;2.05;;
15254;SDS011;7730;49.610;11.136;2023-03-23T07:04:40;5.90;;;2.40;;
15254;SDS011;7730;49.610;11.136;2023-03-23T07:07:09;5.47;;;2.33;;
15254;SDS011;7730;49.610;11.136;2023-03-23T07:09:39;8.50;;;2.42;;
15254;SDS011;7730;49.610;11.136;2023-03-23T07:12:06;5.97;;;2.40;;
15254;SDS011;7730;49.610;11.136;2023-03-23T07:14:33;13.27;;;2.80;;
15254;SDS011;7730;49.610;11.136;2023-03-23T07:17:00;8.68;;;2.60;;
15254;SDS011;7730;49.610;11.136;2023-03-23T07:19:27;6.63;;;2.47;;
15254;SDS011;7730;49.610;11.136;2023-03-23T07:21:54;6.20;;;2.20;;
15254;SDS011;7730;49.610;11.136;2023-03-23T07:24:23;6.53;;;2.10;;
15254;SDS011;7730;49.610;11.136;2023-03-23T07:26:51;8.02;;;2.55;;
15254;SDS011;7730;49.610;11.136;2023-03-23T07:29:18;7.32;;;2.40;;
15254;SDS011;7730;49.610;11.136;2023-03-23T07:31:47;10.50;;;2.72;;
15254;SDS011;7730;49.610;11.136;2023-03-23T07:34:14;6.28;;;2.17;;
15254;SDS011;7730;49.610;11.136;2023-03-23T07:36:42;12.00;;;2.67;;
15254;SDS011;7730;49.610;11.136;2023-03-23T07:39:09;10.32;;;2.90;;
15254;SDS011;7730;49.610;11.136;2023-03-23T07:41:38;10.65;;;2.40;;
15254;SDS011;7730;49.610;11.136;2023-03-23T07:44:05;9.18;;;2.50;;
15254;SDS011;7730;49.610;11.136;2023-03-23T07:46:32;7.57;;;2.70;;
15254;SDS011;7730;49.610;11.136;2023-03-23T07:48:59;6.35;;;2.38;;
15254;SDS011;7730;49.610;11.136;2023-03-23T07:51:29;6.70;;;2.47;;
15254;SDS011;7730;49.610;11.136;2023-03-23T07:53:57;6.03;;;2.60;;
15254;SDS011;7730;49.610;11.136;2023-03-23T07:56:24;6.43;;;2.60;;
15254;SDS011;7730;49.610;11.136;2023-03-23T07:58:52;6.63;;;2.80;;
15254;SDS011;7730;49.610;11.136;2023-03-23T08:01:20;10.20;;;3.67;;
15254;SDS011;7730;49.610;11.136;2023-03-23T08:03:48;7.30;;;3.03;;
15254;SDS011;7730;49.610;11.136;2023-03-23T08:06:15;9.10;;;3.30;;
15254;SDS011;7730;49.610;11.136;2023-03-23T08:08:42;9.52;;;3.20;;
15254;SDS011;7730;49.610;11.136;2023-03-23T08:11:10;8.98;;;3.28;;
15254;SDS011;7730;49.610;11.136;2023-03-23T08:13:40;7.55;;;3.10;;
15254;SDS011;7730;49.610;11.136;2023-03-23T08:16:09;8.52;;;3.33;;
15254;SDS011;7730;49.610;11.136;2023-03-23T08:18:36;7.35;;;2.75;;
15254;SDS011;7730;49.610;11.136;2023-03-23T08:21:04;6.45;;;2.63;;
15254;SDS011;7730;49.610;11.136;2023-03-23T08:23:33;7.57;;;2.90;;
15254;SDS011;7730;49.610;11.136;2023-03-23T08:26:01;6.47;;;2.67;;
15254;SDS011;7730;49.610;11.136;2023-03-23T08:28:28;7.00;;;2.90;;
15254;SDS011;7730;49.610;11.136;2023-03-23T08:30:55;8.77;;;2.85;;
15254;SDS011;7730;49.610;11.136;2023-03-23T08:33:24;7.82;;;2.75;;
15254;SDS011;7730;49.610;11.136;2023-03-23T08:35:55;6.60;;;2.85;;
15254;SDS011;7730;49.610;11.136;2023-03-23T08:38:23;7.15;;;2.80;;
15254;SDS011;7730;49.610;11.136;2023-03-23T08:40:50;5.30;;;2.45;;
15254;SDS011;7730;49.610;11.136;2023-03-23T08:43:17;6.72;;;2.70;;
15254;SDS011;7730;49.610;11.136;2023-03-23T08:45:44;6.47;;;2.47;;
15254;SDS011;7730;49.610;11.136;2023-03-23T08:48:11;5.93;;;2.60;;
15254;SDS011;7730;49.610;11.136;2023-03-23T08:50:40;8.50;;;2.83;;
15254;SDS011;7730;49.610;11.136;2023-03-23T08:53:07;5.75;;;2.70;;
15254;SDS011;7730;49.610;11.136;2023-03-23T08:55:34;8.48;;;2.58;;
15254;SDS011;7730;49.610;11.136;2023-03-23T08:58:01;7.97;;;2.55;;
15254;SDS011;7730;49.610;11.136;2023-03-23T09:00:30;6.57;;;2.70;;
15254;SDS011;7730;49.610;11.136;2023-03-23T09:02:58;6.63;;;2.65;;
15254;SDS011;7730;49.610;11.136;2023-03-23T09:05:26;6.85;;;2.70;;
15254;SDS011;7730;49.610;11.136;2023-03-23T09:07:56;6.53;;;2.50;;
15254;SDS011;7730;49.610;11.136;2023-03-23T09:10:24;7.28;;;3.20;;
15254;SDS011;7730;49.610;11.136;2023-03-23T09:12:51;7.97;;;3.10;;
15254;SDS011;7730;49.610;11.136;2023-03-23T09:15:19;7.53;;;2.95;;
15254;SDS011;7730;49.610;11.136;2023-03-23T09:17:47;6.47;;;2.90;;
15254;SDS011;7730;49.610;11.136;2023-03-23T09:20:15;6.65;;;2.90;;
15254;SDS011;7730;49.610;11.136;2023-03-23T09:22:46;6.13;;;2.90;;
15254;SDS011;7730;49.610;11.136;2023-03-23T09:25:16;5.63;;;2.65;;
15254;SDS011;7730;49.610;11.136;2023-03-23T09:27:44;8.35;;;3.40;;
15254;SDS011;7730;49.610;11.136;2023-03-23T09:30:14;7.20;;;2.90;;
15254;SDS011;7730;49.610;11.136;2023-03-23T09:32:44;7.78;;;2.80;;
15254;SDS011;7730;49.610;11.136;2023-03-23T09:35:13;7.53;;;3.20;;
15254;SDS011;7730;49.610;11.136;2023-03-23T09:37:41;7.43;;;3.40;;
15254;SDS011;7730;49.610;11.136;2023-03-23T09:40:10;5.82;;;2.80;;
15254;SDS011;7730;49.610;11.136;2023-03-23T09:42:43;8.93;;;2.90;;
15254;SDS011;7730;49.610;11.136;2023-03-23T09:45:15;6.22;;;2.80;;
15254;SDS011;7730;49.610;11.136;2023-03-23T09:47:46;7.03;;;2.85;;
15254;SDS011;7730;49.610;11.136;2023-03-23T09:50:17;6.18;;;2.47;;
15254;SDS011;7730;49.610;11.136;2023-03-23T09:52:46;5.90;;;2.70;;
15254;SDS011;7730;49.610;11.136;2023-03-23T09:55:16;6.18;;;2.30;;
15254;SDS011;7730;49.610;11.136;2023-03-23T09:57:47;7.53;;;2.70;;
15254;SDS011;7730;49.610;11.136;2023-03-23T10:00:18;6.38;;;2.35;;
15254;SDS011;7730;49.610;11.136;2023-03-23T10:02:48;4.68;;;2.55;;
15254;SDS011;7730;49.610;11.136;2023-03-23T10:05:25;6.10;;;2.28;;
15254;SDS011;7730;49.610;11.136;2023-03-23T10:07:54;6.13;;;2.50;;
15254;SDS011;7730;49.610;11.136;2023-03-23T10:10:22;6.40;;;2.60;;
15254;SDS011;7730;49.610;11.136;2023-03-23T10:12:52;6.97;;;2.83;;
15254;SDS011;7730;49.610;11.136;2023-03-23T10:15:23;7.40;;;2.53;;
15254;SDS011;7730;49.610;11.136;2023-03-23T10:17:54;6.63;;;2.50;;
15254;SDS011;7730;49.610;11.136;2023-03-23T10:20:33;6.13;;;2.45;;
15254;SDS011;7730;49.610;11.136;2023-03-23T10:23:05;5.90;;;2.50;;
15254;SDS011;7730;49.610;11.136;2023-03-23T10:25:37;4.70;;;2.30;;
15254;SDS011;7730;49.610;11.136;2023-03-23T10:30:36;6.03;;;2.35;;
15254;SDS011;7730;49.610;11.136;2023-03-23T10:33:04;9.55;;;3.10;;
15254;SDS011;7730;49.610;11.136;2023-03-23T10:35:34;9.20;;;3.00;;
15254;SDS011;7730;49.610;11.136;2023-03-23T10:38:05;11.65;;;3.13;;
15254;SDS011;7730;49.610;11.136;2023-03-23T10:40:33;9.95;;;3.15;;
15254;SDS011;7730;49.610;11.136;2023-03-23T10:43:01;8.23;;;2.78;;
15254;SDS011;7730;49.610;11.136;2023-03-23T10:45:28;9.38;;;3.10;;
15254;SDS011;7730;49.610;11.136;2023-03-23T10:48:09;7.38;;;2.70;;
15254;SDS011;7730;49.610;11.136;2023-03-23T10:50:38;10.75;;;3.45;;
15254;SDS011;7730;49.610;11.136;2023-03-23T10:53:10;8.27;;;2.80;;
15254;SDS011;7730;49.610;11.136;2023-03-23T10:55:40;7.80;;;2.90;;
15254;SDS011;7730;49.610;11.136;2023-03-23T10:58:09;9.90;;;2.90;;
15254;SDS011;7730;49.610;11.136;2023-03-23T11:00:40;11.57;;;2.80;;
15254;SDS011;7730;49.610;11.136;2023-03-23T11:03:22;6.53;;;2.55;;
15254;SDS011;7730;49.610;11.136;2023-03-23T11:05:49;7.30;;;2.50;;
15254;SDS011;7730;49.610;11.136;2023-03-23T11:08:18;12.52;;;2.88;;
15254;SDS011;7730;49.610;11.136;2023-03-23T11:10:48;7.22;;;2.42;;
15254;SDS011;7730;49.610;11.136;2023-03-23T11:13:16;7.00;;;2.60;;
15254;SDS011;7730;49.610;11.136;2023-03-23T11:15:44;10.05;;;2.80;;
15254;SDS011;7730;49.610;11.136;2023-03-23T11:18:12;7.55;;;2.30;;
15254;SDS011;7730;49.610;11.136;2023-03-23T11:20:41;7.25;;;2.10;;
15254;SDS011;7730;49.610;11.136;2023-03-23T11:23:17;5.65;;;2.05;;
15254;SDS011;7730;49.610;11.136;2023-03-23T11:25:55;17.67;;;3.70;;
15254;SDS011;7730;49.610;11.136;2023-03-23T11:28:25;5.88;;;2.20;;
15254;SDS011;7730;49.610;11.136;2023-03-23T11:30:53;6.18;;;1.90;;
15254;SDS011;7730;49.610;11.136;2023-03-23T11:33:20;5.03;;;1.83;;
15254;SDS011;7730;49.610;11.136;2023-03-23T11:35:50;4.55;;;1.90;;
15254;SDS011;7730;49.610;11.136;2023-03-23T11:38:19;4.85;;;1.98;;
15254;SDS011;7730;49.610;11.136;2023-03-23T11:40:49;6.43;;;2.03;;
15254;SDS011;7730;49.610;11.136;2023-03-23T11:43:18;6.43;;;2.10;;
15254;SDS011;7730;49.610;11.136;2023-03-23T11:45:47;4.28;;;1.75;;
15254;SDS011;7730;49.610;11.136;2023-03-23T11:48:18;5.47;;;1.90;;
15254;SDS011;7730;49.610;11.136;2023-03-23T11:50:48;8.35;;;2.40;;
15254;SDS011;7730;49.610;11.136;2023-03-23T11:53:20;6.82;;;1.90;;
15254;SDS011;7730;49.610;11.136;2023-03-23T11:55:51;10.57;;;2.33;;
15254;SDS011;7730;49.610;11.136;2023-03-23T11:58:20;8.57;;;2.15;;
15254;SDS011;7730;49.610;11.136;2023-03-23T12:00:51;15.35;;;2.70;;
15254;SDS011;7730;49.610;11.136;2023-03-23T12:03:20;6.18;;;1.63;;
15254;SDS011;7730;49.610;11.136;2023-03-23T12:05:51;6.32;;;2.00;;
15254;SDS011;7730;49.610;11.136;2023-03-23T12:08:29;4.78;;;2.00;;
15254;SDS011;7730;49.610;11.136;2023-03-23T12:11:01;4.13;;;2.00;;
15254;SDS011;7730;49.610;11.136;2023-03-23T12:13:36;8.20;;;2.42;;
15254;SDS011;7730;49.610;11.136;2023-03-23T12:16:07;8.05;;;2.00;;
15254;SDS011;7730;49.610;11.136;2023-03-23T12:18:40;4.80;;;1.90;;
15254;SDS011;7730;49.610;11.136;2023-03-23T12:21:11;2.53;;;1.80;;
15254;SDS011;7730;49.610;11.136;2023-03-23T12:23:43;5.10;;;1.80;;
15254;SDS011;7730;49.610;11.136;2023-03-23T12:26:16;6.18;;;3.08;;
15254;SDS011;7730;49.610;11.136;2023-03-23T12:28:55;6.85;;;2.00;;
15254;SDS011;7730;49.610;11.136;2023-03-23T12:31:25;5.85;;;2.00;;
15254;SDS011;7730;49.610;11.136;2023-03-23T12:33:54;4.32;;;1.88;;
15254;SDS011;7730;49.610;11.136;2023-03-23T12:36:25;6.32;;;2.20;;
15254;SDS011;7730;49.610;11.136;2023-03-23T12:39:00;2.70;;;1.70;;
15254;SDS011;7730;49.610;11.136;2023-03-23T12:41:31;3.75;;;1.90;;
15254;SDS011;7730;49.610;11.136;2023-03-23T12:44:03;5.20;;;2.17;;
15254;SDS011;7730;49.610;11.136;2023-03-23T12:46:40;4.75;;;1.70;;
15254;SDS011;7730;49.610;11.136;2023-03-23T12:49:11;7.00;;;1.73;;
15254;SDS011;7730;49.610;11.136;2023-03-23T12:51:42;4.22;;;1.80;;
15254;SDS011;7730;49.610;11.136;2023-03-23T12:54:13;4.18;;;2.03;;
15254;SDS011;7730;49.610;11.136;2023-03-23T12:56:44;2.90;;;1.83;;
15254;SDS011;7730;49.610;11.136;2023-03-23T12:59:13;5.05;;;1.98;;
15254;SDS011;7730;49.610;11.136;2023-03-23T13:01:43;4.65;;;1.63;;
15254;SDS011;7730;49.610;11.136;2023-03-23T13:04:11;5.22;;;2.08;;
15254;SDS011;7730;49.610;11.136;2023-03-23T13:06:41;4.65;;;1.90;;
15254;SDS011;7730;49.610;11.136;2023-03-23T13:09:10;3.83;;;1.83;;
15254;SDS011;7730;49.610;11.136;2023-03-23T13:11:40;2.70;;;1.58;;
15254;SDS011;7730;49.610;11.136;2023-03-23T13:14:16;3.22;;;1.77;;
15254;SDS011;7730;49.610;11.136;2023-03-23T13:16:51;3.30;;;1.75;;
15254;SDS011;7730;49.610;11.136;2023-03-23T13:19:22;2.90;;;1.80;;
15254;SDS011;7730;49.610;11.136;2023-03-23T13:21:52;3.47;;;1.80;;
15254;SDS011;7730;49.610;11.136;2023-03-23T13:24:22;5.32;;;1.80;;
15254;SDS011;7730;49.610;11.136;2023-03-23T13:26:51;4.43;;;1.85;;
15254;SDS011;7730;49.610;11.136;2023-03-23T13:29:21;3.72;;;1.80;;
15254;SDS011;7730;49.610;11.136;2023-03-23T13:31:52;3.28;;;1.70;;
15254;SDS011;7730;49.610;11.136;2023-03-23T13:34:31;6.70;;;1.98;;
15254;SDS011;7730;49.610;11.136;2023-03-23T13:36:59;3.40;;;1.80;;
15254;SDS011;7730;49.610;11.136;2023-03-23T13:39:29;15.18;;;3.05;;
15254;SDS011;7730;49.610;11.136;2023-03-23T13:42:00;2.13;;;1.70;;
15254;SDS011;7730;49.610;11.136;2023-03-23T13:44:39;5.65;;;1.90;;
15254;SDS011;7730;49.610;11.136;2023-03-23T13:47:15;5.55;;;1.70;;
15254;SDS011;7730;49.610;11.136;2023-03-23T13:49:50;15.48;;;2.67;;
15254;SDS011;7730;49.610;11.136;2023-03-23T13:52:18;10.77;;;2.30;;
15254;SDS011;7730;49.610;11.136;2023-03-23T13:54:50;4.68;;;2.10;;
15254;SDS011;7730;49.610;11.136;2023-03-23T13:57:23;14.75;;;2.40;;
15254;SDS011;7730;49.610;11.136;2023-03-23T13:59:55;12.27;;;2.50;;
15254;SDS011;7730;49.610;11.136;2023-03-23T14:02:31;4.95;;;2.10;;
15254;SDS011;7730;49.610;11.136;2023-03-23T14:05:08;11.75;;;2.63;;
15254;SDS011;7730;49.610;11.136;2023-03-23T14:07:50;10.45;;;2.20;;
15254;SDS011;7730;49.610;11.136;2023-03-23T14:10:18;7.25;;;2.20;;
15254;SDS011;7730;49.610;11.136;2023-03-23T14:12:48;3.60;;;1.92;;
15254;SDS011;7730;49.610;11.136;2023-03-23T14:15:16;5.97;;;2.17;;
15254;SDS011;7730;49.610;11.136;2023-03-23T14:17:44;4.05;;;2.10;;
15254;SDS011;7730;49.610;11.136;2023-03-23T14:20:16;6.88;;;2.83;;
15254;SDS011;7730;49.610;11.136;2023-03-23T14:22:46;5.50;;;2.00;;
15254;SDS011;7730;49.610;11.136;2023-03-23T14:25:14;5.38;;;2.10;;
15254;SDS011;7730;49.610;11.136;2023-03-23T14:27:42;5.10;;;2.38;;
15254;SDS011;7730;49.610;11.136;2023-03-23T14:30:14;4.35;;;2.08;;
15254;SDS011;7730;49.610;11.136;2023-03-23T14:32:41;4.40;;;2.00;;
15254;SDS011;7730;49.610;11.136;2023-03-23T14:35:12;3.47;;;2.10;;
15254;SDS011;7730;49.610;11.136;2023-03-23T14:37:39;3.97;;;2.03;;
15254;SDS011;7730;49.610;11.136;2023-03-23T14:40:08;4.22;;;2.20;;
15254;SDS011;7730;49.610;11.136;2023-03-23T14:42:37;5.85;;;2.15;;
15254;SDS011;7730;49.610;11.136;2023-03-23T14:45:05;3.67;;;1.95;;
15254;SDS011;7730;49.610;11.136;2023-03-23T14:47:34;4.95;;;1.90;;
15254;SDS011;7730;49.610;11.136;2023-03-23T14:50:04;4.80;;;2.03;;
15254;SDS011;7730;49.610;11.136;2023-03-23T14:52:33;4.55;;;2.00;;
15254;SDS011;7730;49.610;11.136;2023-03-23T14:55:10;5.70;;;2.25;;
15254;SDS011;7730;49.610;11.136;2023-03-23T14:57:40;4.47;;;2.08;;
15254;SDS011;7730;49.610;11.136;2023-03-23T15:00:11;5.20;;;2.15;;
15254;SDS011;7730;49.610;11.136;2023-03-23T15:02:43;4.25;;;2.05;;
15254;SDS011;7730;49.610;11.136;2023-03-23T15:05:11;6.20;;;2.08;;
15254;SDS011;7730;49.610;11.136;2023-03-23T15:07:45;4.55;;;2.08;;
15254;SDS011;7730;49.610;11.136;2023-03-23T15:10:14;5.05;;;2.30;;
15254;SDS011;7730;49.610;11.136;2023-03-23T15:12:43;8.93;;;2.28;;